X Fechar
foto
Salvar nos Favoritos

X Fechar
foto
Clique e saiba mais
Clique e saiba mais
Clique e saiba mais
Clique e saiba mais
Clique e saiba mais
Clique e saiba mais

Edgers Racing

KTM Sacramento

Toro Sports

SP Race Park

JPS Racing

MotoX Pneus

Arenafama

Clique e saiba mais

> Notícias > Últimas Notícias

Mundial de Motocross: Vídeos e resultados das classificatórias do MXGP da França
Publicado em: 25/05/2019

Tim Gajser (HRC) e Jorge Prado (Red Bull KTM Factory Racing) dominam primeiro dia em Saint Jean d'Angely
Redação MotoX.com.br - Fotos: Youthstream


Tim Gajser

Neste sábado (25) as corridas classificatórias do MXGP da França movimentaram a tradicional pista de Saint Jean d'Angely, onde os fãs como sempre criaram uma atmosfera incrível para a sétima etapa do Mundial de Motocross 2019. As vitórias nas categorias MXGP e MX2 foram de Tim Gajser (HRC) e Jorge Prado (Red Bull KTM Factory Racing), respectivamente.

A bateria da MXGP começou com Arnaud Tonus na frente e Gautier Paulin, seu companheiro na equipe Monster Energy Wilvo Yamaha, logo atrás. Mas o francês caiu ainda durante os primeiros movimentos, na crista de um dos saltos em descida do circuito, provocando uma confusão na qual Antonio Cairoli se envolveu indo ao chão também.

Com o principal rival brigando por posições no final do pelotão após retornar a disputa, Tim Gajser, que largou em terceiro, se tornou protagonista superar Ivo Monticelli e Arnaud Tonus para assumir a liderança definitivamente. Tomus manteve o segundo lugar até a bandeirada seguido por Clement Desalle, Jeremy Seewer e Romain Febvre que retorna ao campeonato já recuperado da fratura no tornozelo sofrida na primeira etapa.


Jorge Prado

Na MX2 Jorge Prado largou na frente e lá se manteve até o final da corrida. O belga Jago Geerts, do Monster Energy Kemea Yamaha, foi o segundo colocado seguido pelo alemão Henry Jacobi, da F & H Racing Kawasaki. O brasileiro Gustavo Pessoa não completou a corrida de hoje e conta com a 32ª posição no gate de largada deste domingo.

Confira abaixo os vídeos e resultados completos das corridas classificatórias.

Vídeos:







Resultados

P # MXGP País Bike Time V Diff Gap M.V. Speed
1 243 Gajser, Tim SLO Hon 24:45.598 13 0:00.000 0:00.000 1:49.422 53.2
2 4 Tonus, Arnaud SUI Yam 24:55.119 13 0:09.521 0:09.521 1:50.406 52.8
3 25 Desalle, Clement BEL Kaw 25:02.409 13 0:16.811 0:07.290 1:51.494 52.3
4 91 Seewer, Jeremy SUI Yam 25:05.669 13 0:20.071 0:03.260 1:51.634 52.2
5 461 Febvre, Romain FRA Yam 25:11.518 13 0:25.920 0:05.849 1:51.729 52.1
6 89 Van Horebeek, Jeremy BEL Hon 25:13.299 13 0:27.701 0:01.781 1:51.678 52.2
7 128 Monticelli, Ivo ITA KTM 25:14.288 13 0:28.690 0:00.989 1:51.507 52.3
8 259 Coldenhoff, Glenn NED KTM 25:14.714 13 0:29.116 0:00.426 1:52.792 51.7
9 27 Jasikonis, Arminas LTU Hus 25:16.216 13 0:30.618 0:01.502 1:52.096 52
10 6 Paturel, Benoit FRA Kaw 25:22.327 13 0:36.729 0:06.111 1:53.212 51.5
11 21 Paulin, Gautier FRA Yam 25:24.450 13 0:38.852 0:02.123 1:51.621 52.2
12 77 Lupino, Alessandro ITA Kaw 25:29.539 13 0:43.941 0:05.089 1:52.802 51.7
13 7 Leok, Tanel EST Hus 25:35.091 13 0:49.493 0:05.552 1:52.913 51.6
14 222 Cairoli, Antonio ITA KTM 25:36.612 13 0:51.014 0:01.521 1:52.415 51.8
15 33 Lieber, Julien BEL Kaw 25:37.911 13 0:52.313 0:01.299 1:52.401 51.8
16 22 Strijbos, Kevin BEL Yam 25:46.024 13 1:00.426 0:08.113 1:54.257 51
17 189 Bogers, Brian NED Hon 25:48.541 13 1:02.943 0:02.517 1:53.620 51.3
18 911 Tixier, Jordi FRA KTM 25:51.351 13 1:05.753 0:02.810 1:54.665 50.8
19 149 Ullrich, Dennis GER Hus 25:54.426 13 1:08.828 0:03.075 1:54.764 50.8
20 18 Brylyakov, Vsevolod RUS Yam 25:56.886 13 1:11.288 0:02.460 1:55.338 50.5
21 241 Desprey, Maxime FRA Hon 25:57.955 13 1:12.357 0:01.069 1:55.297 50.5
22 297 Gole, Anton SWE Yam 25:58.334 13 1:12.736 0:00.379 1:54.519 50.9
23 321 Bernardini, Samuele ITA Yam 26:02.136 13 1:16.538 0:03.802 1:55.851 50.3
24 20 Aranda, Gregory FRA Kaw 26:02.781 13 1:17.183 0:00.645 1:54.204 51
25 34 De Waal, Micha-Boy NED Yam 26:13.449 13 1:27.851 0:10.668 1:55.869 50.3
26 41 Jonass, Pauls LAT Hus 26:18.417 13 1:32.819 0:04.968 1:54.093 51.1
27 93 Bengtsson, Jonathan SWE KTM 26:33.169 13 1:47.571 0:14.752 1:57.755 49.5
28 38 Houzet, Dan FRA KTM 26:35.251 13 1:49.653 0:02.082 1:58.075 49.3
29 62 Gercar, Klemen SLO Hus 26:36.813 13 1:51.215 0:01.562 1:57.784 49.5
30 555 Guryev, Artem RUS Hus 24:48.156 12 1 lap 1 lap 1:59.224 48.9
31 324 Charlier, Maxime FRA Hus 24:55.659 12 1 lap 0:07.503 1:59.010 49
32 471 Tarasov, Volodymyr UKR KTM 24:56.063 12 1 lap 0:00.404 1:58.984 49
33 96 Zaragoza, Jorge ESP Yam 26:15.952 12 1 lap 1:19.889 1:54.549 50.9
34 152 Petrov, Petar BUL KTM 14:17.065 7 6 laps 5 laps 1:55.444 50.5
35 24 Simpson, Shaun GBR KTM 6:38.337 3 10 laps 4 laps 1:54.847 50.7
36 777 Bobryshev, Evgeny RUS Kaw 4:29.443 2 11 laps 1 lap 1:56.468 50
37 100 Searle, Tommy GBR Kaw 4:29.924 2 11 laps 0:00.481 1:54.674 50.8

P # MX2 País Bike Time V Diff Gap M.V. Speed
1 61 Prado, Jorge ESP KTM 25:07.757 13 0:00.000 0:00.000 1:51.781 52.1
2 193 Geerts, Jago BEL Yam 25:10.811 13 0:03.054 0:03.054 1:52.105 52
3 29 Jacobi, Henry GER Kaw 25:21.314 13 0:13.557 0:10.503 1:52.074 52
4 43 Evans, Mitchell AUS Hon 25:23.024 13 0:15.267 0:01.710 1:53.137 51.5
5 28 Vialle, Tom FRA KTM 25:25.446 13 0:17.689 0:02.422 1:52.714 51.7
6 19 Olsen, Thomas Kjer DEN Hus 25:28.282 13 0:20.525 0:02.836 1:52.882 51.6
7 747 Cervellin, Michele ITA Yam 25:35.241 13 0:27.484 0:06.959 1:53.801 51.2
8 919 Watson, Ben GBR Yam 25:36.111 13 0:28.354 0:00.870 1:54.392 50.9
9 225 Strubhart Moreau, Brian FRA Kaw 25:37.385 13 0:29.628 0:01.274 1:53.869 51.2
10 959 Renaux, Maxime FRA Yam 25:38.665 13 0:30.908 0:01.280 1:53.744 51.2
11 811 Sterry, Adam GBR Kaw 25:50.015 13 0:42.258 0:11.350 1:54.655 50.8
12 46 Pootjes, Davy NED Hus 25:54.677 13 0:46.920 0:04.662 1:53.663 51.3
13 98 Vaessen, Bas NED KTM 26:00.262 13 0:52.505 0:05.585 1:55.360 50.5
14 35 Harrison, Mitchell USA Kaw 26:01.484 13 0:53.727 0:01.222 1:54.974 50.7
15 32 Van doninck, Brent BEL Hon 26:02.476 13 0:54.719 0:00.992 1:55.316 50.5
16 161 Östlund, Alvin SWE Hus 26:09.476 13 1:01.719 0:07.000 1:55.959 50.2
17 172 Boisrame, Mathys FRA Hon 26:16.298 13 1:08.541 0:06.822 1:55.542 50.4
18 57 Sanayei, Darian USA Kaw 26:16.744 13 1:08.987 0:00.446 1:55.638 50.4
19 253 Pancar, Jan SLO Yam 26:18.399 13 1:10.642 0:01.655 1:57.042 49.8
20 783 Toriani, Enzo FRA Hus 26:19.169 13 1:11.412 0:00.770 1:56.473 50
21 102 Sikyna, Richard SVK KTM 26:19.568 13 1:11.811 0:00.399 1:56.614 50
22 44 Lesiardo, Morgan ITA KTM 26:30.120 13 1:22.363 0:10.552 1:57.571 49.6
23 75 Roosiorg, Hardi EST KTM 26:32.278 13 1:24.521 0:02.158 1:57.490 49.6
24 101 Pichon, Zachary FRA Hon 26:32.919 13 1:25.162 0:00.641 1:55.683 50.4
25 485 Savaste, Kim FIN KTM 26:45.638 13 1:37.881 0:12.719 1:56.634 50
26 51 Malaval, Adrien FRA Yam 26:57.487 13 1:49.730 0:11.849 1:58.403 49.2
27 130 De Jong, Rene NED KTM 27:05.158 13 1:57.401 0:07.671 1:58.403 49.2
28 818 Hauquier, Jeremy FRA KTM 25:25.057 12 1 lap 1 lap 2:00.213 48.5
29 313 Polak, Petr CZE KTM 25:44.395 12 1 lap 0:19.338 1:59.920 48.6
30 282 Kahrle, Hampus SWE KTM 26:49.419 12 1 lap 1:05.024 1:56.741 49.9
31 53 Walsh, Dylan NZL Hus 14:12.313 7 6 laps 5 laps 1:55.320 50.5
32 56 Pessoa, Gustavo BRA Kaw 12:31.057 6 7 laps 1 lap 1:56.925 49.8
33 766 Sandner, Michael AUT KTM 10:10.875 4 9 laps 2 laps 2:03.271 47.3
34 331 Freidig, Loris SUI Yam 6:34.050 3 10 laps 1 lap 1:57.176 49.7




Curso MotoX
JPS Racing

© 2000 - 2018 MotoX MX1 Internet